createdAt,value
2018-01-15T00:01:00.028Z,51.32
2018-01-15T00:02:02.514Z,51.45
2018-01-15T00:03:04.988Z,51.55
2018-01-15T00:04:07.449Z,51.62
2018-01-15T00:05:09.906Z,51.58
2018-01-15T00:06:12.380Z,51.55
2018-01-15T00:07:14.857Z,51.58
2018-01-15T00:08:17.333Z,51.66
2018-01-15T00:09:19.816Z,51.69
2018-01-15T00:10:22.274Z,51.70
2018-01-15T00:11:24.730Z,51.67
2018-01-15T00:12:27.220Z,51.72
2018-01-15T00:13:29.696Z,51.74
2018-01-15T00:14:32.175Z,51.75
2018-01-15T00:15:34.634Z,51.79
2018-01-15T00:16:37.120Z,51.81
2018-01-15T00:17:39.626Z,51.78
2018-01-15T00:18:42.104Z,51.87
2018-01-15T00:19:44.562Z,51.94
2018-01-15T00:20:47.022Z,51.91
2018-01-15T00:21:49.478Z,51.92
2018-01-15T00:22:51.971Z,51.95
2018-01-15T00:23:54.447Z,51.99
2018-01-15T00:24:56.905Z,52.08
2018-01-15T00:25:59.362Z,52.17
2018-01-15T00:27:01.818Z,52.22
2018-01-15T00:28:04.298Z,52.22
2018-01-15T00:29:06.776Z,52.32
2018-01-15T00:30:09.234Z,52.46
2018-01-15T00:31:11.689Z,52.50
2018-01-15T00:32:14.168Z,52.59
2018-01-15T00:33:16.661Z,52.69
2018-01-15T00:34:19.140Z,52.79
2018-01-15T00:35:21.613Z,52.89
2018-01-15T00:36:24.065Z,53.01
2018-01-15T00:37:26.516Z,53.02
2018-01-15T00:38:28.998Z,53.16
2018-01-15T00:39:31.457Z,53.24
2018-01-15T00:40:33.932Z,53.20
2018-01-15T00:41:36.393Z,53.11
2018-01-15T00:42:38.896Z,53.14
2018-01-15T00:43:41.395Z,53.24
2018-01-15T00:44:43.864Z,53.23
2018-01-15T00:45:46.327Z,53.28
2018-01-15T00:46:48.808Z,53.61
2018-01-15T00:47:51.280Z,53.65
2018-01-15T00:48:53.753Z,53.40
2018-01-15T00:49:56.210Z,53.43
2018-01-15T00:50:58.710Z,53.55
2018-01-15T00:52:01.161Z,53.60
2018-01-15T00:53:03.632Z,53.60
2018-01-15T00:54:06.111Z,53.53
2018-01-15T00:55:08.569Z,53.46
2018-01-15T00:56:11.039Z,53.46
2018-01-15T00:57:13.501Z,53.61
2018-01-15T00:58:15.957Z,53.72
2018-01-15T00:59:18.436Z,53.78
2018-01-15T01:00:20.894Z,53.73
2018-01-15T01:01:23.436Z,53.72
2018-01-15T01:02:25.893Z,53.78
2018-01-15T01:03:28.378Z,53.82
2018-01-15T01:04:30.852Z,53.94
2018-01-15T01:05:33.328Z,54.04
2018-01-15T01:06:35.803Z,54.11
2018-01-15T01:07:38.261Z,54.10
2018-01-15T01:08:40.732Z,54.21
2018-01-15T01:09:43.203Z,54.19
2018-01-15T01:10:45.684Z,54.30
2018-01-15T01:11:48.167Z,54.35
2018-01-15T01:12:50.642Z,54.42
2018-01-15T01:13:53.116Z,54.47
2018-01-15T01:14:55.569Z,54.55
2018-01-15T01:15:58.024Z,54.62
2018-01-15T01:17:00.490Z,54.71
2018-01-15T01:18:02.960Z,54.82
2018-01-15T01:19:05.609Z,54.93
2018-01-15T01:20:08.082Z,54.98
2018-01-15T01:21:10.553Z,54.91
2018-01-15T01:22:13.011Z,55.02
2018-01-15T01:23:15.475Z,55.07
2018-01-15T01:24:17.956Z,55.00
2018-01-15T01:25:20.414Z,54.90
2018-01-15T01:26:22.888Z,54.91
2018-01-15T01:27:25.368Z,55.01
2018-01-15T01:28:27.841Z,55.12
2018-01-15T01:29:30.311Z,55.15
2018-01-15T01:30:32.781Z,55.19
2018-01-15T01:31:35.252Z,55.19
2018-01-15T01:32:37.724Z,55.37
2018-01-15T01:33:40.182Z,55.35
2018-01-15T01:34:42.679Z,55.29
2018-01-15T01:35:45.148Z,55.28
2018-01-15T01:36:47.608Z,55.29
2018-01-15T01:37:50.065Z,55.38
2018-01-15T01:38:52.539Z,55.37
2018-01-15T01:39:54.996Z,55.42
2018-01-15T01:40:57.460Z,55.40
2018-01-15T01:41:59.921Z,55.41
2018-01-15T01:43:02.406Z,55.56
2018-01-15T01:44:04.886Z,55.58
2018-01-15T01:45:07.341Z,55.58
2018-01-15T01:46:09.794Z,55.54
2018-01-15T01:47:12.258Z,55.59
2018-01-15T01:48:14.727Z,55.64
2018-01-15T01:49:17.196Z,55.63
2018-01-15T01:50:19.650Z,55.61
2018-01-15T01:51:22.116Z,55.55
2018-01-15T01:52:24.598Z,55.59
2018-01-15T01:53:27.053Z,55.71
2018-01-15T01:54:29.506Z,55.68
2018-01-15T01:55:31.988Z,55.71
2018-01-15T01:56:34.460Z,55.63
2018-01-15T01:57:36.941Z,55.64
2018-01-15T01:58:39.399Z,55.71
2018-01-15T01:59:41.858Z,55.70
2018-01-15T02:00:44.314Z,55.72
2018-01-15T02:01:46.771Z,55.81
2018-01-15T02:02:49.229Z,55.75
2018-01-15T02:03:51.739Z,55.69
2018-01-15T02:04:54.211Z,55.57
2018-01-15T02:05:56.666Z,55.53
2018-01-15T02:06:59.140Z,55.63
2018-01-15T02:08:01.608Z,55.73
2018-01-15T02:09:04.092Z,55.86
2018-01-15T02:10:06.546Z,56.07
2018-01-15T02:11:09.021Z,56.08
2018-01-15T02:12:11.476Z,56.02
2018-01-15T02:13:13.968Z,55.96
2018-01-15T02:14:16.432Z,55.96
2018-01-15T02:15:18.903Z,56.00
2018-01-15T02:16:21.375Z,56.16
2018-01-15T02:17:23.834Z,56.31
2018-01-15T02:18:26.290Z,56.54
2018-01-15T02:19:28.746Z,56.61
2018-01-15T02:20:31.215Z,56.78
2018-01-15T02:21:33.675Z,56.75
2018-01-15T02:22:36.130Z,56.81
2018-01-15T02:23:38.581Z,56.80
2018-01-15T02:24:41.060Z,56.56
2018-01-15T02:25:43.526Z,56.38
2018-01-15T02:26:45.992Z,56.36
2018-01-15T02:27:48.445Z,56.39
2018-01-15T02:28:50.907Z,56.50
2018-01-15T02:29:53.361Z,56.49
2018-01-15T02:30:55.813Z,56.56
2018-01-15T02:31:58.269Z,56.61
2018-01-15T02:33:00.744Z,56.62
2018-01-15T02:34:03.202Z,56.66
2018-01-15T02:35:05.657Z,56.52
2018-01-15T02:36:08.123Z,56.46
2018-01-15T02:37:10.578Z,56.50
2018-01-15T02:38:13.033Z,56.61
2018-01-15T02:39:15.493Z,56.96
2018-01-15T02:40:17.959Z,56.91
2018-01-15T02:41:20.428Z,56.95
2018-01-15T02:42:22.907Z,56.82
2018-01-15T02:43:25.398Z,56.96
2018-01-15T02:44:27.858Z,56.93
2018-01-15T02:45:30.329Z,57.08
2018-01-15T02:46:32.808Z,57.10
2018-01-15T02:47:35.278Z,57.10
2018-01-15T02:48:37.734Z,57.09
2018-01-15T02:49:40.205Z,57.11
2018-01-15T02:50:42.676Z,56.96
2018-01-15T02:51:45.153Z,56.99
2018-01-15T02:52:47.606Z,56.90
2018-01-15T02:53:50.066Z,56.87
2018-01-15T02:54:52.517Z,57.00
2018-01-15T02:55:54.988Z,57.11
2018-01-15T02:56:57.460Z,57.43
2018-01-15T02:57:59.932Z,57.50
2018-01-15T02:59:02.390Z,57.32
2018-01-15T03:00:04.856Z,57.18
2018-01-15T03:01:07.323Z,57.26
2018-01-15T03:02:09.791Z,57.17
2018-01-15T03:03:12.260Z,57.17
2018-01-15T03:04:14.718Z,57.16
2018-01-15T03:05:17.194Z,57.40
2018-01-15T03:06:19.650Z,57.16
2018-01-15T03:07:22.124Z,57.05
2018-01-15T03:08:24.574Z,56.96
2018-01-15T03:09:27.025Z,56.98
2018-01-15T03:10:29.486Z,57.00
2018-01-15T03:11:31.960Z,57.02
2018-01-15T03:12:34.414Z,56.66
2018-01-15T03:13:36.879Z,56.76
2018-01-15T03:14:39.333Z,56.61
2018-01-15T03:15:41.785Z,56.52
2018-01-15T03:16:44.272Z,56.46
2018-01-15T03:17:46.719Z,56.47
2018-01-15T03:18:49.173Z,56.33
2018-01-15T03:19:51.633Z,56.26
2018-01-15T03:20:54.106Z,56.03
2018-01-15T03:21:56.572Z,55.98
2018-01-15T03:22:59.039Z,56.27
2018-01-15T03:24:01.518Z,55.95
2018-01-15T03:25:03.994Z,55.87
2018-01-15T03:26:06.491Z,55.90
2018-01-15T03:27:08.950Z,55.54
2018-01-15T03:28:11.428Z,56.14
2018-01-15T03:29:13.886Z,56.06
2018-01-15T03:30:16.342Z,56.04
2018-01-15T03:31:18.797Z,55.83
2018-01-15T03:32:21.273Z,56.00
2018-01-15T03:33:23.730Z,55.83
2018-01-15T03:34:26.190Z,55.58
2018-01-15T03:35:28.666Z,55.54
2018-01-15T03:36:31.137Z,55.40
2018-01-15T03:37:33.604Z,55.53
2018-01-15T03:38:36.075Z,55.43
2018-01-15T03:39:38.530Z,55.52
2018-01-15T03:40:41.004Z,55.71
2018-01-15T03:41:43.489Z,55.67
2018-01-15T03:42:45.983Z,55.83
2018-01-15T03:43:48.438Z,55.97
2018-01-15T03:44:50.894Z,56.17
2018-01-15T03:45:53.363Z,56.20
2018-01-15T03:46:55.821Z,56.18
2018-01-15T03:47:58.293Z,56.03
2018-01-15T03:49:00.764Z,56.08
2018-01-15T03:50:03.244Z,56.25
2018-01-15T03:51:05.723Z,56.14
2018-01-15T03:52:08.178Z,55.72
2018-01-15T03:53:10.633Z,55.68
2018-01-15T03:54:13.103Z,55.25
2018-01-15T03:55:15.561Z,55.30
2018-01-15T03:56:18.029Z,55.31
2018-01-15T03:57:20.503Z,55.22
2018-01-15T03:58:22.959Z,54.96
2018-01-15T03:59:25.434Z,54.47
2018-01-15T04:00:27.967Z,54.77
2018-01-15T04:01:30.444Z,55.28
2018-01-15T04:02:32.900Z,55.70
2018-01-15T04:03:35.372Z,55.96
2018-01-15T04:04:37.856Z,56.01
2018-01-15T04:05:40.325Z,56.28
2018-01-15T04:06:42.804Z,56.31
2018-01-15T04:07:45.266Z,56.53
2018-01-15T04:08:47.751Z,56.64
2018-01-15T04:09:50.225Z,56.80
2018-01-15T04:10:52.696Z,56.98
2018-01-15T04:11:55.180Z,57.03
2018-01-15T04:12:57.642Z,56.94
2018-01-15T04:14:00.112Z,56.83
2018-01-15T04:15:02.570Z,56.85
2018-01-15T04:16:05.028Z,56.82
2018-01-15T04:17:07.499Z,56.78
2018-01-15T04:18:10.600Z,56.74
2018-01-15T04:19:13.068Z,56.71
2018-01-15T04:20:15.563Z,56.85
2018-01-15T04:21:18.026Z,56.83
2018-01-15T04:22:20.481Z,56.77
2018-01-15T04:23:22.951Z,56.78
2018-01-15T04:24:25.428Z,56.71
2018-01-15T04:25:27.891Z,56.73
2018-01-15T04:26:30.370Z,56.88
2018-01-15T04:27:32.840Z,56.93
2018-01-15T04:28:35.296Z,56.87
2018-01-15T04:29:37.768Z,56.90
2018-01-15T04:30:40.224Z,56.81
2018-01-15T04:31:42.699Z,56.88
2018-01-15T04:32:45.176Z,56.82
2018-01-15T04:33:47.646Z,56.79
2018-01-15T04:34:50.121Z,56.86
2018-01-15T04:35:52.586Z,56.72
2018-01-15T04:36:55.060Z,56.42
2018-01-15T04:37:57.514Z,56.24
2018-01-15T04:38:59.969Z,56.50
2018-01-15T04:40:02.422Z,56.34
2018-01-15T04:41:04.877Z,56.21
2018-01-15T04:42:07.360Z,56.17
2018-01-15T04:43:09.818Z,56.10
2018-01-15T04:44:12.274Z,56.06
2018-01-15T04:45:14.748Z,56.03
2018-01-15T04:46:17.222Z,56.12
2018-01-15T04:47:19.712Z,56.14
2018-01-15T04:48:22.220Z,56.08
2018-01-15T04:49:24.681Z,56.11
2018-01-15T04:50:27.143Z,56.18
2018-01-15T04:51:29.628Z,56.15
2018-01-15T04:52:32.298Z,56.10
2018-01-15T04:53:34.778Z,56.13
2018-01-15T04:54:37.251Z,56.25
2018-01-15T04:55:39.768Z,56.23
2018-01-15T04:56:42.244Z,56.20
2018-01-15T04:57:44.718Z,56.31
2018-01-15T04:58:47.204Z,56.34
2018-01-15T04:59:49.692Z,56.28
2018-01-15T05:00:52.170Z,56.30
2018-01-15T05:01:54.644Z,56.32
2018-01-15T05:02:57.102Z,56.29
2018-01-15T05:03:59.580Z,56.33
2018-01-15T05:05:02.056Z,56.48
2018-01-15T05:06:04.518Z,56.59
2018-01-15T05:07:06.973Z,56.68
2018-01-15T05:08:09.855Z,56.62
2018-01-15T05:09:12.321Z,56.78
2018-01-15T05:10:14.787Z,56.74
2018-01-15T05:11:17.265Z,56.64
2018-01-15T05:12:19.800Z,56.74
2018-01-15T05:13:22.284Z,56.65
2018-01-15T05:14:24.752Z,56.59
2018-01-15T05:15:27.205Z,56.58
2018-01-15T05:16:29.689Z,56.84
2018-01-15T05:17:32.153Z,57.01
2018-01-15T05:18:34.625Z,57.00
2018-01-15T05:19:37.081Z,56.97
2018-01-15T05:20:39.551Z,56.77
2018-01-15T05:21:42.022Z,56.86
2018-01-15T05:22:44.491Z,57.04
2018-01-15T05:23:46.959Z,57.22
2018-01-15T05:24:49.597Z,57.09
2018-01-15T05:25:52.076Z,56.89
2018-01-15T05:26:54.532Z,56.95
2018-01-15T05:27:57.073Z,56.86
2018-01-15T05:28:59.531Z,56.97
2018-01-15T05:30:01.994Z,56.81
2018-01-15T05:31:04.462Z,56.61
2018-01-15T05:32:06.931Z,56.54
2018-01-15T05:33:09.395Z,56.42
2018-01-15T05:34:11.869Z,56.38
2018-01-15T05:35:14.326Z,56.34
2018-01-15T05:36:16.797Z,56.16
2018-01-15T05:37:19.280Z,56.09
2018-01-15T05:38:21.753Z,56.29
2018-01-15T05:39:24.219Z,56.06
2018-01-15T05:40:26.674Z,56.06
2018-01-15T05:41:29.152Z,56.06
2018-01-15T05:42:31.606Z,56.06
2018-01-15T05:43:34.058Z,56.07
2018-01-15T05:44:36.596Z,56.05
2018-01-15T05:45:39.055Z,56.10
2018-01-15T05:46:41.505Z,56.04
2018-01-15T05:47:43.977Z,56.45
2018-01-15T05:48:46.452Z,56.49
2018-01-15T05:49:48.912Z,56.50
2018-01-15T05:50:51.376Z,56.57
2018-01-15T05:51:53.848Z,56.71
2018-01-15T05:52:56.321Z,56.55
2018-01-15T05:53:58.792Z,56.47
2018-01-15T05:55:01.256Z,56.95
2018-01-15T05:56:03.728Z,56.63
2018-01-15T05:57:06.183Z,56.75
2018-01-15T05:58:08.809Z,56.89
2018-01-15T05:59:11.279Z,56.75
2018-01-15T06:00:13.736Z,56.85
2018-01-15T06:01:16.220Z,57.09
2018-01-15T06:02:18.692Z,57.36
2018-01-15T06:03:21.249Z,57.51
2018-01-15T06:04:23.828Z,57.52
2018-01-15T06:05:26.294Z,57.47
2018-01-15T06:06:28.762Z,57.49
2018-01-15T06:07:31.236Z,57.62
2018-01-15T06:08:33.708Z,57.47
2018-01-15T06:09:36.162Z,57.59
2018-01-15T06:10:38.631Z,57.59
2018-01-15T06:11:41.090Z,57.72
2018-01-15T06:12:43.560Z,57.60
2018-01-15T06:13:46.028Z,57.73
2018-01-15T06:14:48.482Z,57.75
2018-01-15T06:15:50.957Z,57.62
2018-01-15T06:16:53.435Z,57.66
2018-01-15T06:17:55.920Z,57.71
2018-01-15T06:18:58.421Z,57.66
2018-01-15T06:20:00.881Z,57.51
2018-01-15T06:21:03.353Z,57.62
2018-01-15T06:22:05.824Z,57.77
2018-01-15T06:23:08.296Z,57.59
2018-01-15T06:24:10.776Z,57.39
2018-01-15T06:25:13.249Z,57.20
2018-01-15T06:26:15.726Z,57.11
2018-01-15T06:27:18.200Z,56.98
2018-01-15T06:28:20.654Z,56.79
2018-01-15T06:29:23.112Z,56.75
2018-01-15T06:30:25.604Z,56.58
2018-01-15T06:31:28.058Z,56.60
2018-01-15T06:32:30.514Z,56.57
2018-01-15T06:33:32.993Z,56.65
2018-01-15T06:34:35.467Z,57.58
2018-01-15T06:35:37.932Z,57.47
2018-01-15T06:36:40.406Z,56.81
2018-01-15T06:37:42.867Z,56.77
2018-01-15T06:38:45.326Z,56.80
2018-01-15T06:39:47.799Z,56.69
2018-01-15T06:40:50.250Z,56.66
2018-01-15T06:41:52.705Z,56.65
2018-01-15T06:42:55.184Z,56.75
2018-01-15T06:43:57.660Z,56.73
2018-01-15T06:45:00.114Z,56.78
2018-01-15T06:46:02.576Z,56.99
2018-01-15T06:47:05.173Z,56.93
2018-01-15T06:48:07.629Z,57.04
2018-01-15T06:49:10.082Z,56.92
2018-01-15T06:50:12.558Z,57.04
2018-01-15T06:51:15.027Z,56.98
2018-01-15T06:52:17.506Z,57.10
2018-01-15T06:53:20.024Z,57.21
2018-01-15T06:54:22.507Z,54.35
2018-01-15T06:55:24.983Z,51.69
2018-01-15T06:56:27.438Z,50.02
2018-01-15T06:57:29.913Z,48.20
2018-01-15T06:58:32.399Z,47.54
2018-01-15T06:59:34.877Z,47.70
2018-01-15T07:00:37.351Z,47.17
2018-01-15T07:01:39.815Z,46.51
2018-01-15T07:02:42.298Z,44.07
2018-01-15T07:03:44.854Z,44.58
2018-01-15T07:04:47.340Z,44.73
2018-01-15T07:05:49.823Z,45.28
2018-01-15T07:06:52.291Z,44.77
2018-01-15T07:07:54.801Z,44.06
2018-01-15T07:08:57.278Z,43.93
2018-01-15T07:09:59.759Z,43.42
2018-01-15T07:11:02.251Z,43.58
2018-01-15T07:12:04.732Z,43.29
2018-01-15T07:13:08.183Z,41.80
2018-01-15T07:14:11.046Z,42.29
2018-01-15T07:15:13.902Z,41.66
2018-01-15T07:16:16.780Z,41.82
2018-01-15T07:17:19.636Z,43.46
2018-01-15T07:18:22.177Z,42.27
2018-01-15T07:19:24.656Z,42.12
2018-01-15T07:20:27.161Z,42.20
2018-01-15T07:21:29.652Z,42.65
2018-01-15T07:22:32.140Z,41.60
2018-01-15T07:23:34.646Z,42.06
2018-01-15T07:24:37.122Z,42.44
2018-01-15T07:25:39.603Z,43.32
2018-01-15T07:26:42.163Z,43.18
2018-01-15T07:27:44.630Z,43.58
2018-01-15T07:28:47.126Z,43.56
2018-01-15T07:29:49.586Z,43.77
2018-01-15T07:30:52.058Z,43.87
2018-01-15T07:31:54.556Z,43.74
2018-01-15T07:32:57.026Z,43.14
2018-01-15T07:33:59.647Z,42.94
2018-01-15T07:35:02.206Z,42.69
2018-01-15T07:36:04.674Z,42.58
2018-01-15T07:37:07.164Z,42.21
2018-01-15T07:38:10.127Z,42.15
2018-01-15T07:39:12.618Z,43.10
2018-01-15T07:40:15.101Z,43.03
2018-01-15T07:41:17.576Z,43.55
2018-01-15T07:42:20.042Z,43.71
2018-01-15T07:43:22.520Z,43.72
2018-01-15T07:44:25.030Z,42.38
2018-01-15T07:45:27.486Z,42.21
2018-01-15T07:46:29.958Z,42.00
2018-01-15T07:47:32.418Z,41.81
2018-01-15T07:48:34.892Z,41.64
2018-01-15T07:49:37.387Z,41.55
2018-01-15T07:50:39.850Z,41.65
2018-01-15T07:51:42.306Z,41.72
2018-01-15T07:52:44.766Z,41.82
2018-01-15T07:53:47.233Z,41.75
2018-01-15T07:54:49.709Z,41.83
2018-01-15T07:55:52.246Z,41.95
2018-01-15T07:56:54.724Z,41.86
2018-01-15T07:57:57.177Z,41.88
2018-01-15T07:58:59.652Z,41.96
2018-01-15T08:00:02.224Z,42.04
2018-01-15T08:01:04.706Z,42.01
2018-01-15T08:02:07.179Z,42.10
2018-01-15T08:03:09.640Z,42.29
2018-01-15T08:04:12.127Z,42.22
2018-01-15T08:05:14.600Z,42.27
2018-01-15T08:06:17.062Z,42.29
2018-01-15T08:07:19.519Z,42.38
2018-01-15T08:08:21.973Z,42.48
2018-01-15T08:09:24.458Z,42.56
2018-01-15T08:10:26.937Z,42.53
2018-01-15T08:11:29.419Z,42.63
2018-01-15T08:12:31.892Z,42.67
2018-01-15T08:13:34.363Z,42.68
2018-01-15T08:14:36.836Z,42.87
2018-01-15T08:15:39.294Z,42.90
2018-01-15T08:16:41.768Z,42.96
2018-01-15T08:17:44.234Z,43.02
2018-01-15T08:18:46.693Z,43.04
2018-01-15T08:19:49.165Z,43.08
2018-01-15T08:20:51.639Z,43.14
2018-01-15T08:21:54.116Z,43.17
2018-01-15T08:22:56.578Z,43.24
2018-01-15T08:23:59.033Z,43.44
2018-01-15T08:25:01.508Z,43.54
2018-01-15T08:26:03.970Z,43.66
2018-01-15T08:27:06.428Z,43.77
2018-01-15T08:28:08.907Z,43.81
2018-01-15T08:29:11.388Z,43.83
2018-01-15T08:30:13.852Z,43.87
2018-01-15T08:31:16.332Z,43.96
2018-01-15T08:32:18.802Z,44.06
2018-01-15T08:33:21.295Z,44.14
2018-01-15T08:34:23.758Z,44.13
2018-01-15T08:35:26.234Z,44.16
2018-01-15T08:36:28.709Z,44.23
2018-01-15T08:37:31.187Z,44.31
2018-01-15T08:38:33.645Z,44.36
2018-01-15T08:39:36.185Z,44.40
2018-01-15T08:40:38.662Z,44.45
2018-01-15T08:41:41.208Z,44.53
2018-01-15T08:42:43.684Z,44.62
2018-01-15T08:43:46.146Z,44.70
2018-01-15T08:44:48.606Z,44.79
2018-01-15T08:45:51.079Z,44.88
2018-01-15T08:46:53.538Z,44.94
2018-01-15T08:47:55.993Z,45.01
2018-01-15T08:48:58.453Z,45.12
2018-01-15T08:50:00.917Z,45.26
2018-01-15T08:51:03.379Z,45.35
2018-01-15T08:52:05.857Z,45.41
2018-01-15T08:53:08.332Z,45.52
2018-01-15T08:54:10.808Z,45.62
2018-01-15T08:55:13.358Z,45.67
2018-01-15T08:56:15.822Z,45.77
2018-01-15T08:57:18.285Z,45.85
2018-01-15T08:58:20.764Z,45.86
2018-01-15T08:59:24.345Z,45.92
2018-01-15T09:00:26.820Z,46.08
2018-01-15T09:01:29.300Z,46.18
2018-01-15T09:02:31.781Z,46.25
2018-01-15T09:03:34.238Z,46.36
2018-01-15T09:04:36.717Z,46.44
2018-01-15T09:05:39.191Z,46.57
2018-01-15T09:06:41.668Z,46.69
2018-01-15T09:07:44.130Z,46.77
2018-01-15T09:08:46.585Z,46.83
2018-01-15T09:09:49.042Z,46.90
2018-01-15T09:10:51.497Z,46.98
2018-01-15T09:11:53.958Z,47.07
2018-01-15T09:12:56.459Z,47.12
2018-01-15T09:13:58.920Z,47.13
2018-01-15T09:15:01.432Z,47.21
2018-01-15T09:16:03.886Z,47.27
2018-01-15T09:17:06.353Z,47.39
2018-01-15T09:18:08.832Z,47.46
2018-01-15T09:19:11.307Z,47.53
2018-01-15T09:20:13.783Z,47.58
2018-01-15T09:21:16.265Z,47.65
2018-01-15T09:22:18.742Z,47.71
2018-01-15T09:23:21.224Z,47.75
2018-01-15T09:24:23.698Z,47.79
2018-01-15T09:25:26.189Z,47.83
2018-01-15T09:26:28.680Z,47.89
2018-01-15T09:27:31.169Z,47.94
2018-01-15T09:28:33.631Z,48.00
2018-01-15T09:29:36.128Z,48.04
2018-01-15T09:30:38.616Z,48.06
2018-01-15T09:31:41.073Z,48.09
2018-01-15T09:32:43.552Z,48.12
2018-01-15T09:33:46.028Z,48.15
2018-01-15T09:34:48.498Z,48.19
2018-01-15T09:35:50.984Z,48.20
2018-01-15T09:36:53.484Z,48.24
2018-01-15T09:37:55.969Z,48.26
2018-01-15T09:38:58.436Z,48.27
2018-01-15T09:40:00.955Z,48.28
2018-01-15T09:41:03.427Z,48.33
2018-01-15T09:42:05.913Z,48.37
2018-01-15T09:43:08.381Z,48.39
2018-01-15T09:44:10.868Z,48.42
2018-01-15T09:45:13.340Z,48.43
2018-01-15T09:46:15.820Z,48.47
2018-01-15T09:47:18.292Z,48.52
2018-01-15T09:48:20.766Z,48.55
2018-01-15T09:49:23.242Z,48.58
2018-01-15T09:50:25.720Z,48.62
2018-01-15T09:51:28.200Z,48.65
2018-01-15T09:52:30.688Z,48.68
2018-01-15T09:53:33.157Z,48.71
2018-01-15T09:54:35.625Z,48.75
2018-01-15T09:55:38.090Z,48.77
2018-01-15T09:56:40.563Z,48.78
2018-01-15T09:57:43.044Z,48.80
2018-01-15T09:58:45.513Z,48.82
2018-01-15T09:59:47.997Z,48.82
2018-01-15T10:00:50.465Z,48.82
2018-01-15T10:01:52.930Z,48.85
2018-01-15T10:02:55.424Z,48.86
2018-01-15T10:03:57.929Z,48.94
2018-01-15T10:05:00.390Z,49.12
2018-01-15T10:06:02.862Z,49.24
2018-01-15T10:07:05.329Z,49.28
2018-01-15T10:08:07.804Z,49.28
2018-01-15T10:09:10.291Z,49.26
2018-01-15T10:10:12.775Z,49.25
2018-01-15T10:11:15.249Z,49.25
2018-01-15T10:12:17.731Z,49.22
2018-01-15T10:13:20.198Z,49.22
2018-01-15T10:14:22.670Z,49.24
2018-01-15T10:15:25.156Z,49.18
2018-01-15T10:16:27.640Z,49.14
2018-01-15T10:17:30.119Z,49.15
2018-01-15T10:18:32.612Z,49.13
2018-01-15T10:19:35.089Z,49.10
2018-01-15T10:20:37.557Z,49.07
2018-01-15T10:21:40.015Z,49.05
2018-01-15T10:22:42.470Z,49.03
2018-01-15T10:23:44.940Z,49.04
2018-01-15T10:24:47.419Z,49.04
2018-01-15T10:25:49.899Z,49.05
2018-01-15T10:26:52.369Z,49.04
2018-01-15T10:27:54.866Z,49.02
2018-01-15T10:28:57.339Z,49.01
2018-01-15T10:29:59.817Z,48.99
2018-01-15T10:31:02.281Z,49.00
2018-01-15T10:32:05.072Z,49.01
2018-01-15T10:33:07.554Z,49.02
2018-01-15T10:34:10.026Z,49.02
2018-01-15T10:35:12.504Z,49.01
2018-01-15T10:36:14.974Z,49.03
2018-01-15T10:37:17.430Z,49.08
2018-01-15T10:38:19.912Z,49.14
2018-01-15T10:39:22.375Z,49.23
2018-01-15T10:40:24.842Z,49.32
2018-01-15T10:41:27.358Z,49.30
2018-01-15T10:42:30.075Z,49.16
2018-01-15T10:43:32.547Z,49.21
2018-01-15T10:44:35.128Z,49.02
2018-01-15T10:45:37.590Z,48.86
2018-01-15T10:46:40.068Z,48.68
2018-01-15T10:47:42.568Z,48.46
2018-01-15T10:48:45.040Z,48.29
2018-01-15T10:49:47.512Z,48.06
2018-01-15T10:50:49.981Z,47.94
2018-01-15T10:51:52.448Z,47.83
2018-01-15T10:52:54.920Z,47.76
2018-01-15T10:53:57.828Z,47.63
2018-01-15T10:55:00.285Z,47.51
2018-01-15T10:56:02.745Z,47.31
2018-01-15T10:57:05.220Z,47.27
2018-01-15T10:58:07.700Z,47.23
2018-01-15T10:59:10.174Z,47.17
2018-01-15T11:00:12.630Z,47.17
2018-01-15T11:01:20.686Z,47.10
2018-01-15T11:02:23.160Z,47.06
2018-01-15T11:03:25.641Z,46.94
2018-01-15T11:04:28.112Z,46.82
2018-01-15T11:05:30.690Z,46.78
2018-01-15T11:06:33.154Z,46.66
2018-01-15T11:07:35.619Z,46.54
2018-01-15T11:08:38.089Z,46.43
2018-01-15T11:09:40.548Z,46.49
2018-01-15T11:10:43.028Z,46.48
2018-01-15T11:11:45.546Z,46.52
2018-01-15T11:12:48.033Z,46.52
2018-01-15T11:13:50.510Z,46.50
2018-01-15T11:14:52.991Z,46.41
2018-01-15T11:15:55.465Z,46.37
2018-01-15T11:16:57.915Z,46.39
2018-01-15T11:18:00.385Z,46.41
2018-01-15T11:19:02.838Z,46.48
2018-01-15T11:20:05.290Z,46.40
2018-01-15T11:21:07.742Z,46.35
2018-01-15T11:22:10.194Z,46.29
2018-01-15T11:23:12.676Z,46.23
2018-01-15T11:24:15.132Z,46.13
2018-01-15T11:25:17.587Z,46.11
2018-01-15T11:26:20.053Z,46.09
2018-01-15T11:27:22.507Z,46.08
2018-01-15T11:28:24.980Z,45.64
2018-01-15T11:29:27.433Z,45.58
2018-01-15T11:30:29.906Z,45.04
2018-01-15T11:31:32.373Z,45.08
2018-01-15T11:32:34.829Z,45.10
2018-01-15T11:33:37.300Z,45.08
2018-01-15T11:34:39.757Z,45.16
2018-01-15T11:35:42.227Z,45.20
2018-01-15T11:36:44.682Z,45.23
2018-01-15T11:37:47.149Z,45.32
2018-01-15T11:38:49.612Z,45.40
2018-01-15T11:39:52.070Z,45.41
2018-01-15T11:40:54.535Z,45.47
2018-01-15T11:41:57.011Z,45.50
2018-01-15T11:42:59.481Z,45.54
2018-01-15T11:44:01.948Z,45.57
2018-01-15T11:45:04.419Z,45.63
2018-01-15T11:46:06.898Z,45.74
2018-01-15T11:47:09.358Z,45.82
2018-01-15T11:48:11.827Z,45.86
2018-01-15T11:49:14.289Z,45.91
2018-01-15T11:50:16.741Z,45.98
2018-01-15T11:51:19.259Z,46.01
2018-01-15T11:52:21.730Z,45.95
2018-01-15T11:53:24.216Z,45.91
2018-01-15T11:54:26.683Z,45.82
2018-01-15T11:55:29.153Z,45.75
2018-01-15T11:56:31.619Z,45.63
2018-01-15T11:57:34.074Z,45.54
2018-01-15T11:58:36.534Z,45.51
2018-01-15T11:59:38.989Z,45.51
2018-01-15T12:00:41.447Z,45.52
2018-01-15T12:01:43.960Z,45.44
2018-01-15T12:02:46.432Z,45.16
2018-01-15T12:03:48.885Z,44.69
2018-01-15T12:04:51.338Z,44.65
2018-01-15T12:05:53.812Z,44.67
2018-01-15T12:06:56.280Z,44.66
2018-01-15T12:07:58.733Z,44.64
2018-01-15T12:09:01.208Z,44.64
2018-01-15T12:10:03.688Z,44.57
2018-01-15T12:11:06.161Z,44.58
2018-01-15T12:12:08.621Z,44.59
2018-01-15T12:13:11.091Z,44.57
2018-01-15T12:14:13.546Z,44.49
2018-01-15T12:15:16.022Z,44.44
2018-01-15T12:16:18.477Z,44.32
2018-01-15T12:17:20.953Z,44.28
2018-01-15T12:18:23.423Z,44.23
2018-01-15T12:19:25.899Z,44.18
2018-01-15T12:20:28.372Z,44.15
2018-01-15T12:21:30.825Z,44.10
2018-01-15T12:22:33.317Z,44.06
2018-01-15T12:23:35.787Z,44.04
2018-01-15T12:24:38.260Z,44.00
2018-01-15T12:25:40.724Z,44.05
2018-01-15T12:26:43.183Z,44.01
2018-01-15T12:27:45.642Z,44.03
2018-01-15T12:28:48.118Z,44.03
2018-01-15T12:29:50.604Z,43.99
2018-01-15T12:30:53.066Z,44.00
2018-01-15T12:31:55.522Z,44.06
2018-01-15T12:32:57.977Z,44.05
2018-01-15T12:34:00.433Z,44.04
2018-01-15T12:35:02.908Z,44.07
2018-01-15T12:36:05.384Z,44.12
2018-01-15T12:37:07.847Z,44.10
2018-01-15T12:38:10.548Z,44.07
2018-01-15T12:39:13.016Z,44.04
2018-01-15T12:40:15.469Z,43.93
2018-01-15T12:41:17.940Z,43.85
2018-01-15T12:42:20.408Z,43.81
2018-01-15T12:43:22.995Z,43.76
2018-01-15T12:44:25.449Z,43.69
2018-01-15T12:45:27.902Z,43.68
2018-01-15T12:46:30.377Z,43.67
2018-01-15T12:47:32.838Z,43.65
2018-01-15T12:48:35.290Z,43.61
2018-01-15T12:49:37.750Z,43.62
2018-01-15T12:50:40.206Z,43.63
2018-01-15T12:51:42.676Z,43.67
2018-01-15T12:52:45.134Z,43.70
2018-01-15T12:53:47.597Z,43.71
2018-01-15T12:54:50.088Z,43.71
2018-01-15T12:55:52.561Z,43.68
2018-01-15T12:56:55.027Z,43.75
2018-01-15T12:57:57.500Z,43.73
2018-01-15T12:58:59.977Z,43.79
2018-01-15T13:00:02.452Z,43.82
2018-01-15T13:01:04.924Z,43.85
2018-01-15T13:02:07.377Z,43.89
2018-01-15T13:03:09.847Z,43.94
2018-01-15T13:04:12.302Z,43.98
2018-01-15T13:05:14.754Z,44.00
2018-01-15T13:06:19.950Z,44.07
2018-01-15T13:07:34.334Z,44.13
2018-01-15T13:10:14.592Z,44.24
2018-01-15T13:11:17.045Z,44.29
2018-01-15T13:12:19.537Z,44.34
2018-01-15T13:13:22.237Z,44.39
2018-01-15T13:14:24.772Z,44.44
2018-01-15T13:15:27.226Z,44.48
2018-01-15T13:16:29.714Z,44.52
2018-01-15T13:17:32.191Z,44.56
2018-01-15T13:18:34.685Z,44.57
2018-01-15T13:19:37.157Z,44.60
2018-01-15T13:20:39.702Z,44.66
2018-01-15T13:21:42.176Z,44.66
2018-01-15T13:22:44.662Z,44.65
2018-01-15T13:23:47.141Z,44.68
2018-01-15T13:24:49.589Z,44.64
2018-01-15T13:25:52.049Z,44.55
2018-01-15T13:26:54.524Z,44.44